Catalina Jet — WDD8449 — position and weather

sailwx.info

Track history (hours):
 
Tides and Currents Weather Stations Pressure Air Temp Water Temp Dewpoint Dewpoint Depression Visibility Wind Speed Wind Dir Waves Ship Positions

Catalina Jet

Owner: RGWT, INC, San Pedro, CA. More information available from US FCC via Universal Licensing System and Coast Guard Vessel Documentation Center.

Last reported at 2018-Apr-23 01:53 UTC. Time now 2018-Apr-23 02:05 UTC.
Position N 33°22' W 118°19'.

Length 42 m; draft 3.7 m.

Type: High speed craft. MMSI: 367008510.

Date/timePositionNaut miles runAvg speedWind from/ knotsBaromVisibWave heightAir tempDewpointWater temp
2018-Apr-23 01:53N 33°22' W 118°19'1230.8
2018-Apr-23 01:30N 33°33' W 118°15'1325.8
2018-Apr-23 01:00N 33°45' W 118°11'1 1.5
2018-Apr-23 00:30N 33°46' W 118°12'0 0.0
2018-Apr-23 00:00N 33°46' W 118°12'1020.5
2018-Apr-22 23:30N 33°36' W 118°12'1529.6
2018-Apr-22 23:00N 33°22' W 118°19'1 1.5
2018-Apr-22 22:14N 33°21' W 118°19'313.0
2018-Apr-22 21:58N 33°24' W 118°18'1531.2
2018-Apr-22 21:30N 33°38' W 118°13'815.8
2018-Apr-22 21:00N 33°46' W 118°12'0 0.0
2018-Apr-22 20:30N 33°46' W 118°12'0 0.0
2018-Apr-22 20:00N 33°46' W 118°12'612.7
2018-Apr-22 19:31N 33°40' W 118°11'1529.7
2018-Apr-22 19:00N 33°25' W 118°17'5 7.3
2018-Apr-22 18:21N 33°21' W 118°19'0 0.0
2018-Apr-22 18:00N 33°21' W 118°19'1223.2
2018-Apr-22 17:30N 33°32' W 118°15'1427.9
2018-Apr-22 17:00N 33°45' W 118°11'1 1.7
2018-Apr-22 16:30N 33°46' W 118°12'0 0.0
2018-Apr-22 16:00N 33°46' W 118°12'4 9.1
2018-Apr-22 15:31N 33°41' W 118°11'1830.9
2018-Apr-22 14:56N 33°25' W 118°17'4 5.0
2018-Apr-22 14:06N 33°21' W 118°19'114.9
2018-Apr-22 14:00N 33°22' W 118°19'1530.9
2018-Apr-22 13:30N 33°37' W 118°13'918.3
2018-Apr-22 13:00N 33°46' W 118°12'0 0.0
2018-Apr-22 12:30N 33°46' W 118°12'0 0.0
2018-Apr-22 12:00N 33°46' W 118°12'0 0.0
2018-Apr-22 11:25N 33°46' W 118°12'0 0.0
2018-Apr-22 10:56N 33°46' W 118°12'0 0.0
2018-Apr-22 10:29N 33°46' W 118°12'1 0.1
2018-Apr-22 03:26N 33°45' W 118°11'1227.6
2018-Apr-22 03:00N 33°33' W 118°14'1327.3
2018-Apr-22 02:31N 33°21' W 118°19'0 0.1
2018-Apr-22 02:00N 33°21' W 118°19'918.1
2018-Apr-22 01:30N 33°29' W 118°16'1428.6
2018-Apr-22 01:01N 33°43' W 118°11'3 5.7
2018-Apr-22 00:30N 33°46' W 118°12'0 0.0
2018-Apr-22 00:00N 33°46' W 118°12'815.8
2018-Apr-21 23:31N 33°38' W 118°12'1530.2
2018-Apr-21 23:01N 33°24' W 118°18'3 4.6
2018-Apr-21 22:16N 33°21' W 118°19'516.6
2018-Apr-21 21:58N 33°25' W 118°18'1430.8
2018-Apr-21 21:31N 33°39' W 118°13'713.8
2018-Apr-21 21:00N 33°46' W 118°12'0 0.0
2018-Apr-21 20:30N 33°46' W 118°12'0 0.0
2018-Apr-21 20:00N 33°46' W 118°12'510.9
2018-Apr-21 19:30N 33°40' W 118°11'2113.2
2018-Apr-21 17:56N 33°21' W 118°19'1428.5
2018-Apr-21 17:27N 33°34' W 118°14'1225.8
2018-Apr-21 17:00N 33°45' W 118°11'1 1.4
2018-Apr-21 16:30N 33°46' W 118°12'0 0.0
2018-Apr-21 16:00N 33°46' W 118°12'612.1
2018-Apr-21 15:31N 33°40' W 118°11'1811.8
2018-Apr-21 14:00N 33°23' W 118°18'1530.5
2018-Apr-21 13:30N 33°37' W 118°13'917.7
2018-Apr-21 13:00N 33°46' W 118°12'0 0.0
2018-Apr-21 12:30N 33°46' W 118°12'0 0.0
2018-Apr-21 12:00N 33°46' W 118°12'0 0.0
2018-Apr-21 11:30N 33°46' W 118°12'0 0.0
2018-Apr-21 11:00N 33°46' W 118°12'0 0.0
2018-Apr-21 10:31N 33°46' W 118°12'0 0.0
2018-Apr-21 04:19N 33°46' W 118°12'0 0.0
2018-Apr-21 04:00N 33°46' W 118°12'1 1.2
2018-Apr-21 03:30N 33°45' W 118°11'2011.3
2018-Apr-21 01:44N 33°26' W 118°15'831.2
2018-Apr-21 01:30N 33°33' W 118°13'1225.5
2018-Apr-21 01:00N 33°45' W 118°11'1 1.1
2018-Apr-21 00:30N 33°46' W 118°12'0 0.0
2018-Apr-21 00:00N 33°46' W 118°12'10 4.2
2018-Apr-20 21:34N 33°36' W 118°12'229.4
2018-Apr-20 21:30N 33°38' W 118°12'816.5
2018-Apr-20 21:01N 33°46' W 118°12'0 0.1
2018-Apr-20 20:31N 33°46' W 118°12'0 0.0
2018-Apr-20 20:00N 33°46' W 118°12'612.3
2018-Apr-20 19:30N 33°40' W 118°11'2 0.8
2018-Apr-20 17:14N 33°38' W 118°13'629.2
2018-Apr-20 17:01N 33°44' W 118°10'2 3.9
2018-Apr-20 16:30N 33°46' W 118°12'0 0.0
2018-Apr-20 16:00N 33°46' W 118°12'510.9
2018-Apr-20 15:30N 33°40' W 118°11'2 1.1
2018-Apr-20 13:25N 33°38' W 118°13'818.3
2018-Apr-20 13:00N 33°46' W 118°12'0 0.0
2018-Apr-20 12:30N 33°46' W 118°12'0 0.0
2018-Apr-20 12:00N 33°46' W 118°12'0 0.0
2018-Apr-20 11:30N 33°46' W 118°12'0 0.0
2018-Apr-20 04:15N 33°46' W 118°12'0 0.0
2018-Apr-20 04:00N 33°46' W 118°12'0 0.5
2018-Apr-20 03:30N 33°46' W 118°12'7 3.2
2018-Apr-20 01:10N 33°38' W 118°13'529.6
2018-Apr-20 01:00N 33°43' W 118°11'3 6.1
2018-Apr-20 00:30N 33°46' W 118°12'0 0.0
2018-Apr-20 00:00N 33°46' W 118°12'6 2.2
2018-Apr-19 21:21N 33°40' W 118°12'616.6
2018-Apr-19 21:00N 33°46' W 118°12'0 0.1
2018-Apr-19 20:30N 33°46' W 118°12'0 0.0
2018-Apr-19 20:00N 33°46' W 118°12'4 8.1
2018-Apr-19 19:30N 33°42' W 118°11'4 1.6
2018-Apr-19 17:16N 33°39' W 118°12'724.4
2018-Apr-19 17:00N 33°45' W 118°11'1 1.4
2018-Apr-19 16:30N 33°46' W 118°12'0 0.0
2018-Apr-19 16:01N 33°46' W 118°12'815.9
2018-Apr-19 15:29N 33°38' W 118°12'1 0.5
2018-Apr-19 13:29N 33°37' W 118°13'8 0.8
2018-Apr-19 03:29N 33°45' W 118°11'2515.1
2018-Apr-19 01:49N 33°21' W 118°19'1630.0
2018-Apr-19 01:16N 33°37' W 118°13'830.0
2018-Apr-19 01:00N 33°45' W 118°10'2 3.2
2018-Apr-19 00:30N 33°46' W 118°12'0 0.0
2018-Apr-19 00:00N 33°46' W 118°12'1219.9
2018-Apr-18 23:24N 33°34' W 118°14'1229.7
2018-Apr-18 23:00N 33°23' W 118°19'2 2.4
2018-Apr-18 22:06N 33°21' W 118°19'112.9
2018-Apr-18 22:01N 33°22' W 118°19'1530.1
2018-Apr-18 21:30N 33°36' W 118°13'1019.1
2018-Apr-18 21:00N 33°46' W 118°12'0 0.0
2018-Apr-18 20:30N 33°46' W 118°12'0 0.0
2018-Apr-18 20:00N 33°46' W 118°12'611.3
2018-Apr-18 19:30N 33°40' W 118°11'1529.6
2018-Apr-18 19:00N 33°26' W 118°17'611.1
2018-Apr-18 18:30N 33°21' W 118°19'0 0.0
2018-Apr-18 18:00N 33°21' W 118°19'1625.4
2018-Apr-18 17:22N 33°36' W 118°13'926.2
2018-Apr-18 17:00N 33°45' W 118°11'1 1.2
2018-Apr-18 16:30N 33°46' W 118°12'0 0.0
2018-Apr-18 16:00N 33°46' W 118°12'611.5
2018-Apr-18 15:30N 33°40' W 118°11'2014.8
2018-Apr-18 14:08N 33°21' W 118°19'1827.3
2018-Apr-18 13:28N 33°38' W 118°12'817.4
2018-Apr-18 13:00N 33°46' W 118°12'0 0.0
2018-Apr-18 12:30N 33°46' W 118°12'0 0.0
2018-Apr-18 12:00N 33°46' W 118°12'0 0.0
2018-Apr-18 11:30N 33°46' W 118°12'0 0.0
2018-Apr-18 03:47N 33°46' W 118°12'1 4.0
2018-Apr-18 03:30N 33°45' W 118°11'1529.4
2018-Apr-18 02:59N 33°30' W 118°16'1 0.4
2018-Apr-18 01:28N 33°30' W 118°15'1429.9
2018-Apr-18 01:01N 33°44' W 118°11'2 4.5
2018-Apr-18 00:30N 33°46' W 118°12'0 0.1
2018-Apr-18 00:00N 33°46' W 118°12'815.9
2018-Apr-17 23:30N 33°38' W 118°11'10 5.6
2018-Apr-17 21:48N 33°29' W 118°15'929.7
2018-Apr-17 21:30N 33°37' W 118°12'917.1
2018-Apr-17 21:00N 33°46' W 118°12'0 0.0
2018-Apr-17 20:30N 33°46' W 118°12'0 0.0
2018-Apr-17 20:01N 33°46' W 118°12'510.3
2018-Apr-17 19:30N 33°41' W 118°11'6 3.0
2018-Apr-17 17:26N 33°35' W 118°13'1024.1
2018-Apr-17 17:00N 33°45' W 118°11'1 2.0
2018-Apr-17 16:30N 33°46' W 118°12'0 0.0
2018-Apr-17 16:00N 33°46' W 118°12'611.5
2018-Apr-17 15:31N 33°40' W 118°11'5 2.4
2018-Apr-17 13:29N 33°36' W 118°12'10 4.5
2018-Apr-17 11:13N 33°46' W 118°12'0 0.0
2018-Apr-17 10:45N 33°46' W 118°12'0 0.0
2018-Apr-17 10:29N 33°46' W 118°12'0 0.0
2018-Apr-17 10:00N 33°46' W 118°12'0 0.0
2018-Apr-17 05:00N 33°46' W 118°12'0 0.0
2018-Apr-17 04:31N 33°46' W 118°12'0 0.0
2018-Apr-17 04:00N 33°46' W 118°12'0 1.0
2018-Apr-17 03:30N 33°45' W 118°12'12 5.6
2018-Apr-17 01:24N 33°34' W 118°14'1127.5
2018-Apr-17 01:00N 33°44' W 118°11'2 3.6
2018-Apr-17 00:30N 33°46' W 118°12'0 0.0
2018-Apr-17 00:00N 33°46' W 118°12'1020.0
2018-Apr-16 23:30N 33°36' W 118°13'1 0.5
2018-Apr-16 21:36N 33°35' W 118°13'330.2
2018-Apr-16 21:30N 33°38' W 118°13'816.5
2018-Apr-16 21:00N 33°46' W 118°12'0 0.0
2018-Apr-16 20:30N 33°46' W 118°12'0 0.0
2018-Apr-16 20:00N 33°46' W 118°12'713.5
2018-Apr-16 19:31N 33°39' W 118°11'4 2.0
2018-Apr-16 17:25N 33°35' W 118°14'1024.5
2018-Apr-16 17:00N 33°45' W 118°11'1 1.6
2018-Apr-16 16:30N 33°46' W 118°12'0 0.0
2018-Apr-16 16:00N 33°46' W 118°12'611.3
2018-Apr-16 15:30N 33°40' W 118°11'6 2.9
2018-Apr-16 13:36N 33°35' W 118°14'330.2
2018-Apr-16 13:30N 33°38' W 118°13'8 0.8
2018-Apr-16 03:28N 33°45' W 118°11'1527.6
2018-Apr-16 02:55N 33°30' W 118°15'1021.1
2018-Apr-16 02:25N 33°21' W 118°19'1 1.8
2018-Apr-16 01:48N 33°22' W 118°19'1030.7
2018-Apr-16 01:28N 33°31' W 118°15'1329.1
2018-Apr-16 01:00N 33°44' W 118°11'2 3.8
2018-Apr-16 00:31N 33°46' W 118°12'0 0.0
2018-Apr-16 00:00N 33°46' W 118°12'917.8
2018-Apr-15 23:31N 33°37' W 118°13'1428.8
2018-Apr-15 23:00N 33°23' W 118°18'3 3.2
2018-Apr-15 22:08N 33°21' W 118°19'220.0
2018-Apr-15 22:00N 33°23' W 118°18'1530.5
2018-Apr-15 21:30N 33°38' W 118°14'816.1
2018-Apr-15 21:00N 33°46' W 118°12'0 0.0
2018-Apr-15 20:30N 33°46' W 118°12'0 0.4
2018-Apr-15 20:00N 33°46' W 118°12'1122.9
2018-Apr-15 19:30N 33°34' W 118°13'14 9.3
2018-Apr-15 17:59N 33°21' W 118°19'1529.3
2018-Apr-15 17:29N 33°35' W 118°14'1122.5
2018-Apr-15 17:00N 33°46' W 118°12'0 0.5
2018-Apr-15 16:30N 33°46' W 118°12'0 0.0
2018-Apr-15 16:00N 33°46' W 118°12'4 8.5
2018-Apr-15 15:30N 33°42' W 118°11'1631.3
2018-Apr-15 15:00N 33°27' W 118°16'612.4
2018-Apr-15 14:29N 33°21' W 118°19'3 6.1
2018-Apr-15 14:00N 33°23' W 118°18'1427.3
2018-Apr-15 13:30N 33°36' W 118°13'918.7
2018-Apr-15 13:00N 33°46' W 118°12'0 0.0
2018-Apr-15 10:58N 33°46' W 118°12'0 0.0
2018-Apr-15 10:27N 33°46' W 118°12'0 0.1
2018-Apr-15 03:40N 33°45' W 118°12'317.3
2018-Apr-15 03:30N 33°43' W 118°11'1325.4
2018-Apr-15 03:01N 33°31' W 118°14'10 9.3
2018-Apr-15 01:54N 33°21' W 118°19'1026.0
2018-Apr-15 01:30N 33°31' W 118°16'1428.2
2018-Apr-15 01:00N 33°44' W 118°11'2 3.8
2018-Apr-15 00:30N 33°46' W 118°12'0 0.0
2018-Apr-15 00:00N 33°46' W 118°12'713.8
2018-Apr-14 23:31N 33°39' W 118°12'1812.4
2018-Apr-14 22:03N 33°22' W 118°19'1430.0
2018-Apr-14 21:36N 33°35' W 118°14'329.4
2018-Apr-14 21:30N 33°38' W 118°13'816.3
2018-Apr-14 21:00N 33°46' W 118°12'0 0.0
2018-Apr-14 20:30N 33°46' W 118°12'0 0.0
2018-Apr-14 20:00N 33°46' W 118°12'511.0
2018-Apr-14 19:30N 33°40' W 118°11'2113.6
2018-Apr-14 17:59N 33°21' W 118°19'1224.6
2018-Apr-14 17:30N 33°32' W 118°14'1427.8
2018-Apr-14 17:00N 33°45' W 118°11'1 1.3
2018-Apr-14 16:29N 33°46' W 118°12'0 0.0
2018-Apr-14 16:00N 33°46' W 118°12'611.3
2018-Apr-14 15:30N 33°40' W 118°11'1829.7
2018-Apr-14 14:54N 33°23' W 118°18'3 3.2
2018-Apr-14 14:05N 33°21' W 118°19'218.5
2018-Apr-14 14:00N 33°22' W 118°18'1530.1
2018-Apr-14 13:30N 33°36' W 118°13'9 0.9
2018-Apr-14 03:31N 33°45' W 118°11'0 8.0
2018-Apr-14 03:29N 33°45' W 118°11'1428.2
2018-Apr-14 03:00N 33°32' W 118°15'11 9.0
2018-Apr-14 01:49N 33°22' W 118°19'929.4
2018-Apr-14 01:30N 33°31' W 118°16'1428.2
2018-Apr-14 01:01N 33°44' W 118°11'2 3.7
2018-Apr-14 00:30N 33°46' W 118°12'0 0.0
2018-Apr-14 00:00N 33°46' W 118°12'815.0
2018-Apr-13 23:30N 33°38' W 118°12'1529.2
2018-Apr-13 23:00N 33°24' W 118°18'7 5.6
2018-Apr-13 21:44N 33°31' W 118°15'728.8
2018-Apr-13 21:30N 33°37' W 118°13'816.7
2018-Apr-13 21:00N 33°46' W 118°12'0 0.0
2018-Apr-13 20:30N 33°46' W 118°12'0 0.0
2018-Apr-13 20:00N 33°46' W 118°12'510.5
2018-Apr-13 19:31N 33°41' W 118°11'5 2.4
2018-Apr-13 17:25N 33°36' W 118°12'1024.1
2018-Apr-13 17:00N 33°45' W 118°12'0 0.9
2018-Apr-13 16:30N 33°46' W 118°12'0 0.0
2018-Apr-13 15:59N 33°46' W 118°12'714.9
2018-Apr-13 15:31N 33°39' W 118°11'3 1.4
2018-Apr-13 13:31N 33°36' W 118°13'029.5
2018-Apr-13 13:30N 33°37' W 118°13'918.1
2018-Apr-13 13:00N 33°46' W 118°12'0 0.0
2018-Apr-13 12:30N 33°46' W 118°12'0 0.0
2018-Apr-13 12:00N 33°46' W 118°12'0 0.0
2018-Apr-13 11:30N 33°46' W 118°12'0 0.0
2018-Apr-13 11:00N 33°46' W 118°12'  
Track history (hours):
 
Tides and Currents Weather Stations Pressure Air Temp Water Temp Dewpoint Dewpoint Depression Visibility Wind Speed Wind Dir Waves Ship Positions

Catalina Jet

Owner: RGWT, INC, San Pedro, CA. More information available from US FCC via Universal Licensing System and Coast Guard Vessel Documentation Center.

Last reported at 2018-Apr-23 01:53 UTC. Time now 2018-Apr-23 02:05 UTC.
Position N 33°22' W 118°19'.

Length 42 m; draft 3.7 m.

Type: High speed craft. MMSI: 367008510.

Date/timePositionNaut miles runAvg speedWind from/ knotsBaromVisibWave heightAir tempDewpointWater temp
2018-Apr-23 01:53N 33°22' W 118°19'1230.8
2018-Apr-23 01:30N 33°33' W 118°15'1325.8
2018-Apr-23 01:00N 33°45' W 118°11'1 1.5
2018-Apr-23 00:30N 33°46' W 118°12'0 0.0
2018-Apr-23 00:00N 33°46' W 118°12'1020.5
2018-Apr-22 23:30N 33°36' W 118°12'1529.6
2018-Apr-22 23:00N 33°22' W 118°19'1 1.5
2018-Apr-22 22:14N 33°21' W 118°19'313.0
2018-Apr-22 21:58N 33°24' W 118°18'1531.2
2018-Apr-22 21:30N 33°38' W 118°13'815.8
2018-Apr-22 21:00N 33°46' W 118°12'0 0.0
2018-Apr-22 20:30N 33°46' W 118°12'0 0.0
2018-Apr-22 20:00N 33°46' W 118°12'612.7
2018-Apr-22 19:31N 33°40' W 118°11'1529.7
2018-Apr-22 19:00N 33°25' W 118°17'5 7.3
2018-Apr-22 18:21N 33°21' W 118°19'0 0.0
2018-Apr-22 18:00N 33°21' W 118°19'1223.2
2018-Apr-22 17:30N 33°32' W 118°15'1427.9
2018-Apr-22 17:00N 33°45' W 118°11'1 1.7
2018-Apr-22 16:30N 33°46' W 118°12'0 0.0
2018-Apr-22 16:00N 33°46' W 118°12'4 9.1
2018-Apr-22 15:31N 33°41' W 118°11'1830.9
2018-Apr-22 14:56N 33°25' W 118°17'4 5.0
2018-Apr-22 14:06N 33°21' W 118°19'114.9
2018-Apr-22 14:00N 33°22' W 118°19'1530.9
2018-Apr-22 13:30N 33°37' W 118°13'918.3
2018-Apr-22 13:00N 33°46' W 118°12'0 0.0
2018-Apr-22 12:30N 33°46' W 118°12'0 0.0
2018-Apr-22 12:00N 33°46' W 118°12'0 0.0
2018-Apr-22 11:25N 33°46' W 118°12'0 0.0
2018-Apr-22 10:56N 33°46' W 118°12'0 0.0
2018-Apr-22 10:29N 33°46' W 118°12'1 0.1
2018-Apr-22 03:26N 33°45' W 118°11'1227.6
2018-Apr-22 03:00N 33°33' W 118°14'1327.3
2018-Apr-22 02:31N 33°21' W 118°19'0 0.1
2018-Apr-22 02:00N 33°21' W 118°19'918.1
2018-Apr-22 01:30N 33°29' W 118°16'1428.6
2018-Apr-22 01:01N 33°43' W 118°11'3 5.7
2018-Apr-22 00:30N 33°46' W 118°12'0 0.0
2018-Apr-22 00:00N 33°46' W 118°12'815.8
2018-Apr-21 23:31N 33°38' W 118°12'1530.2
2018-Apr-21 23:01N 33°24' W 118°18'3 4.6
2018-Apr-21 22:16N 33°21' W 118°19'516.6
2018-Apr-21 21:58N 33°25' W 118°18'1430.8
2018-Apr-21 21:31N 33°39' W 118°13'713.8
2018-Apr-21 21:00N 33°46' W 118°12'0 0.0
2018-Apr-21 20:30N 33°46' W 118°12'0 0.0
2018-Apr-21 20:00N 33°46' W 118°12'510.9
2018-Apr-21 19:30N 33°40' W 118°11'2113.2
2018-Apr-21 17:56N 33°21' W 118°19'1428.5
2018-Apr-21 17:27N 33°34' W 118°14'1225.8
2018-Apr-21 17:00N 33°45' W 118°11'1 1.4
2018-Apr-21 16:30N 33°46' W 118°12'0 0.0
2018-Apr-21 16:00N 33°46' W 118°12'612.1
2018-Apr-21 15:31N 33°40' W 118°11'1811.8
2018-Apr-21 14:00N 33°23' W 118°18'1530.5
2018-Apr-21 13:30N 33°37' W 118°13'917.7
2018-Apr-21 13:00N 33°46' W 118°12'0 0.0
2018-Apr-21 12:30N 33°46' W 118°12'0 0.0
2018-Apr-21 12:00N 33°46' W 118°12'0 0.0
2018-Apr-21 11:30N 33°46' W 118°12'0 0.0
2018-Apr-21 11:00N 33°46' W 118°12'0 0.0
2018-Apr-21 10:31N 33°46' W 118°12'0 0.0
2018-Apr-21 04:19N 33°46' W 118°12'0 0.0
2018-Apr-21 04:00N 33°46' W 118°12'1 1.2
2018-Apr-21 03:30N 33°45' W 118°11'2011.3
2018-Apr-21 01:44N 33°26' W 118°15'831.2
2018-Apr-21 01:30N 33°33' W 118°13'1225.5
2018-Apr-21 01:00N 33°45' W 118°11'1 1.1
2018-Apr-21 00:30N 33°46' W 118°12'0 0.0
2018-Apr-21 00:00N 33°46' W 118°12'10 4.2
2018-Apr-20 21:34N 33°36' W 118°12'229.4
2018-Apr-20 21:30N 33°38' W 118°12'816.5
2018-Apr-20 21:01N 33°46' W 118°12'0 0.1
2018-Apr-20 20:31N 33°46' W 118°12'0 0.0
2018-Apr-20 20:00N 33°46' W 118°12'612.3
2018-Apr-20 19:30N 33°40' W 118°11'2 0.8
2018-Apr-20 17:14N 33°38' W 118°13'629.2
2018-Apr-20 17:01N 33°44' W 118°10'2 3.9
2018-Apr-20 16:30N 33°46' W 118°12'0 0.0
2018-Apr-20 16:00N 33°46' W 118°12'510.9
2018-Apr-20 15:30N 33°40' W 118°11'2 1.1
2018-Apr-20 13:25N 33°38' W 118°13'818.3
2018-Apr-20 13:00N 33°46' W 118°12'0 0.0
2018-Apr-20 12:30N 33°46' W 118°12'0 0.0
2018-Apr-20 12:00N 33°46' W 118°12'0 0.0
2018-Apr-20 11:30N 33°46' W 118°12'0 0.0
2018-Apr-20 04:15N 33°46' W 118°12'0 0.0
2018-Apr-20 04:00N 33°46' W 118°12'0 0.5
2018-Apr-20 03:30N 33°46' W 118°12'7 3.2
2018-Apr-20 01:10N 33°38' W 118°13'529.6
2018-Apr-20 01:00N 33°43' W 118°11'3 6.1
2018-Apr-20 00:30N 33°46' W 118°12'0 0.0
2018-Apr-20 00:00N 33°46' W 118°12'6 2.2
2018-Apr-19 21:21N 33°40' W 118°12'616.6
2018-Apr-19 21:00N 33°46' W 118°12'0 0.1
2018-Apr-19 20:30N 33°46' W 118°12'0 0.0
2018-Apr-19 20:00N 33°46' W 118°12'4 8.1
2018-Apr-19 19:30N 33°42' W 118°11'4 1.6
2018-Apr-19 17:16N 33°39' W 118°12'724.4
2018-Apr-19 17:00N 33°45' W 118°11'1 1.4
2018-Apr-19 16:30N 33°46' W 118°12'0 0.0
2018-Apr-19 16:01N 33°46' W 118°12'815.9
2018-Apr-19 15:29N 33°38' W 118°12'1 0.5
2018-Apr-19 13:29N 33°37' W 118°13'8 0.8
2018-Apr-19 03:29N 33°45' W 118°11'2515.1
2018-Apr-19 01:49N 33°21' W 118°19'1630.0
2018-Apr-19 01:16N 33°37' W 118°13'830.0
2018-Apr-19 01:00N 33°45' W 118°10'2 3.2
2018-Apr-19 00:30N 33°46' W 118°12'0 0.0
2018-Apr-19 00:00N 33°46' W 118°12'1219.9
2018-Apr-18 23:24N 33°34' W 118°14'1229.7
2018-Apr-18 23:00N 33°23' W 118°19'2 2.4
2018-Apr-18 22:06N 33°21' W 118°19'112.9
2018-Apr-18 22:01N 33°22' W 118°19'1530.1
2018-Apr-18 21:30N 33°36' W 118°13'1019.1
2018-Apr-18 21:00N 33°46' W 118°12'0 0.0
2018-Apr-18 20:30N 33°46' W 118°12'0 0.0
2018-Apr-18 20:00N 33°46' W 118°12'611.3
2018-Apr-18 19:30N 33°40' W 118°11'1529.6
2018-Apr-18 19:00N 33°26' W 118°17'611.1
2018-Apr-18 18:30N 33°21' W 118°19'0 0.0
2018-Apr-18 18:00N 33°21' W 118°19'1625.4
2018-Apr-18 17:22N 33°36' W 118°13'926.2
2018-Apr-18 17:00N 33°45' W 118°11'1 1.2
2018-Apr-18 16:30N 33°46' W 118°12'0 0.0
2018-Apr-18 16:00N 33°46' W 118°12'611.5
2018-Apr-18 15:30N 33°40' W 118°11'2014.8
2018-Apr-18 14:08N 33°21' W 118°19'1827.3
2018-Apr-18 13:28N 33°38' W 118°12'817.4
2018-Apr-18 13:00N 33°46' W 118°12'0 0.0
2018-Apr-18 12:30N 33°46' W 118°12'0 0.0
2018-Apr-18 12:00N 33°46' W 118°12'0 0.0
2018-Apr-18 11:30N 33°46' W 118°12'0 0.0
2018-Apr-18 03:47N 33°46' W 118°12'1 4.0
2018-Apr-18 03:30N 33°45' W 118°11'1529.4
2018-Apr-18 02:59N 33°30' W 118°16'1 0.4
2018-Apr-18 01:28N 33°30' W 118°15'1429.9
2018-Apr-18 01:01N 33°44' W 118°11'2 4.5
2018-Apr-18 00:30N 33°46' W 118°12'0 0.1
2018-Apr-18 00:00N 33°46' W 118°12'815.9
2018-Apr-17 23:30N 33°38' W 118°11'10 5.6
2018-Apr-17 21:48N 33°29' W 118°15'929.7
2018-Apr-17 21:30N 33°37' W 118°12'917.1
2018-Apr-17 21:00N 33°46' W 118°12'0 0.0
2018-Apr-17 20:30N 33°46' W 118°12'0 0.0
2018-Apr-17 20:01N 33°46' W 118°12'510.3
2018-Apr-17 19:30N 33°41' W 118°11'6 3.0
2018-Apr-17 17:26N 33°35' W 118°13'1024.1
2018-Apr-17 17:00N 33°45' W 118°11'1 2.0
2018-Apr-17 16:30N 33°46' W 118°12'0 0.0
2018-Apr-17 16:00N 33°46' W 118°12'611.5
2018-Apr-17 15:31N 33°40' W 118°11'5 2.4
2018-Apr-17 13:29N 33°36' W 118°12'10 4.5
2018-Apr-17 11:13N 33°46' W 118°12'0 0.0
2018-Apr-17 10:45N 33°46' W 118°12'0 0.0
2018-Apr-17 10:29N 33°46' W 118°12'0 0.0
2018-Apr-17 10:00N 33°46' W 118°12'0 0.0
2018-Apr-17 05:00N 33°46' W 118°12'0 0.0
2018-Apr-17 04:31N 33°46' W 118°12'0 0.0
2018-Apr-17 04:00N 33°46' W 118°12'0 1.0
2018-Apr-17 03:30N 33°45' W 118°12'12 5.6
2018-Apr-17 01:24N 33°34' W 118°14'1127.5
2018-Apr-17 01:00N 33°44' W 118°11'2 3.6
2018-Apr-17 00:30N 33°46' W 118°12'0 0.0
2018-Apr-17 00:00N 33°46' W 118°12'1020.0
2018-Apr-16 23:30N 33°36' W 118°13'1 0.5
2018-Apr-16 21:36N 33°35' W 118°13'330.2
2018-Apr-16 21:30N 33°38' W 118°13'816.5
2018-Apr-16 21:00N 33°46' W 118°12'0 0.0
2018-Apr-16 20:30N 33°46' W 118°12'0 0.0
2018-Apr-16 20:00N 33°46' W 118°12'713.5
2018-Apr-16 19:31N 33°39' W 118°11'4 2.0
2018-Apr-16 17:25N 33°35' W 118°14'1024.5
2018-Apr-16 17:00N 33°45' W 118°11'1 1.6
2018-Apr-16 16:30N 33°46' W 118°12'0 0.0
2018-Apr-16 16:00N 33°46' W 118°12'611.3
2018-Apr-16 15:30N 33°40' W 118°11'6 2.9
2018-Apr-16 13:36N 33°35' W 118°14'330.2
2018-Apr-16 13:30N 33°38' W 118°13'8 0.8
2018-Apr-16 03:28N 33°45' W 118°11'1527.6
2018-Apr-16 02:55N 33°30' W 118°15'1021.1
2018-Apr-16 02:25N 33°21' W 118°19'1 1.8
2018-Apr-16 01:48N 33°22' W 118°19'1030.7
2018-Apr-16 01:28N 33°31' W 118°15'1329.1
2018-Apr-16 01:00N 33°44' W 118°11'2 3.8
2018-Apr-16 00:31N 33°46' W 118°12'0 0.0
2018-Apr-16 00:00N 33°46' W 118°12'917.8
2018-Apr-15 23:31N 33°37' W 118°13'1428.8
2018-Apr-15 23:00N 33°23' W 118°18'3 3.2
2018-Apr-15 22:08N 33°21' W 118°19'220.0
2018-Apr-15 22:00N 33°23' W 118°18'1530.5
2018-Apr-15 21:30N 33°38' W 118°14'816.1
2018-Apr-15 21:00N 33°46' W 118°12'0 0.0
2018-Apr-15 20:30N 33°46' W 118°12'0 0.4
2018-Apr-15 20:00N 33°46' W 118°12'1122.9
2018-Apr-15 19:30N 33°34' W 118°13'14 9.3
2018-Apr-15 17:59N 33°21' W 118°19'1529.3
2018-Apr-15 17:29N 33°35' W 118°14'1122.5
2018-Apr-15 17:00N 33°46' W 118°12'0 0.5
2018-Apr-15 16:30N 33°46' W 118°12'0 0.0
2018-Apr-15 16:00N 33°46' W 118°12'4 8.5
2018-Apr-15 15:30N 33°42' W 118°11'1631.3
2018-Apr-15 15:00N 33°27' W 118°16'612.4
2018-Apr-15 14:29N 33°21' W 118°19'3 6.1
2018-Apr-15 14:00N 33°23' W 118°18'1427.3
2018-Apr-15 13:30N 33°36' W 118°13'918.7
2018-Apr-15 13:00N 33°46' W 118°12'0 0.0
2018-Apr-15 10:58N 33°46' W 118°12'0 0.0
2018-Apr-15 10:27N 33°46' W 118°12'0 0.1
2018-Apr-15 03:40N 33°45' W 118°12'317.3
2018-Apr-15 03:30N 33°43' W 118°11'1325.4
2018-Apr-15 03:01N 33°31' W 118°14'10 9.3
2018-Apr-15 01:54N 33°21' W 118°19'1026.0
2018-Apr-15 01:30N 33°31' W 118°16'1428.2
2018-Apr-15 01:00N 33°44' W 118°11'2 3.8
2018-Apr-15 00:30N 33°46' W 118°12'0 0.0
2018-Apr-15 00:00N 33°46' W 118°12'713.8
2018-Apr-14 23:31N 33°39' W 118°12'1812.4
2018-Apr-14 22:03N 33°22' W 118°19'1430.0
2018-Apr-14 21:36N 33°35' W 118°14'329.4
2018-Apr-14 21:30N 33°38' W 118°13'816.3
2018-Apr-14 21:00N 33°46' W 118°12'0 0.0
2018-Apr-14 20:30N 33°46' W 118°12'0 0.0
2018-Apr-14 20:00N 33°46' W 118°12'511.0
2018-Apr-14 19:30N 33°40' W 118°11'2113.6
2018-Apr-14 17:59N 33°21' W 118°19'1224.6
2018-Apr-14 17:30N 33°32' W 118°14'1427.8
2018-Apr-14 17:00N 33°45' W 118°11'1 1.3
2018-Apr-14 16:29N 33°46' W 118°12'0 0.0
2018-Apr-14 16:00N 33°46' W 118°12'611.3
2018-Apr-14 15:30N 33°40' W 118°11'1829.7
2018-Apr-14 14:54N 33°23' W 118°18'3 3.2
2018-Apr-14 14:05N 33°21' W 118°19'218.5
2018-Apr-14 14:00N 33°22' W 118°18'1530.1
2018-Apr-14 13:30N 33°36' W 118°13'9 0.9
2018-Apr-14 03:31N 33°45' W 118°11'0 8.0
2018-Apr-14 03:29N 33°45' W 118°11'1428.2
2018-Apr-14 03:00N 33°32' W 118°15'11 9.0
2018-Apr-14 01:49N 33°22' W 118°19'929.4
2018-Apr-14 01:30N 33°31' W 118°16'1428.2
2018-Apr-14 01:01N 33°44' W 118°11'2 3.7
2018-Apr-14 00:30N 33°46' W 118°12'0 0.0
2018-Apr-14 00:00N 33°46' W 118°12'815.0
2018-Apr-13 23:30N 33°38' W 118°12'1529.2
2018-Apr-13 23:00N 33°24' W 118°18'7 5.6
2018-Apr-13 21:44N 33°31' W 118°15'728.8
2018-Apr-13 21:30N 33°37' W 118°13'816.7
2018-Apr-13 21:00N 33°46' W 118°12'0 0.0
2018-Apr-13 20:30N 33°46' W 118°12'0 0.0
2018-Apr-13 20:00N 33°46' W 118°12'510.5
2018-Apr-13 19:31N 33°41' W 118°11'5 2.4
2018-Apr-13 17:25N 33°36' W 118°12'1024.1
2018-Apr-13 17:00N 33°45' W 118°12'0 0.9
2018-Apr-13 16:30N 33°46' W 118°12'0 0.0
2018-Apr-13 15:59N 33°46' W 118°12'714.9
2018-Apr-13 15:31N 33°39' W 118°11'3 1.4
2018-Apr-13 13:31N 33°36' W 118°13'029.5
2018-Apr-13 13:30N 33°37' W 118°13'918.1
2018-Apr-13 13:00N 33°46' W 118°12'0 0.0
2018-Apr-13 12:30N 33°46' W 118°12'0 0.0
2018-Apr-13 12:00N 33°46' W 118°12'0 0.0
2018-Apr-13 11:30N 33°46' W 118°12'0 0.0
2018-Apr-13 11:00N 33°46' W 118°12'  

Dump ship's entire track history